sensor_id;sensor_type;location;lat;lon;timestamp;P1;durP1;ratioP1;P2;durP2;ratioP2
29954;SDS011;16812;51.168;6.840;2022-07-04T00:02:23;1.97;;;1.77;;
29954;SDS011;16812;51.168;6.840;2022-07-04T00:04:52;3.10;;;1.40;;
29954;SDS011;16812;51.168;6.840;2022-07-04T00:07:19;4.37;;;1.57;;
29954;SDS011;16812;51.168;6.840;2022-07-04T00:09:47;2.47;;;1.40;;
29954;SDS011;16812;51.168;6.840;2022-07-04T00:12:14;2.80;;;1.80;;
29954;SDS011;16812;51.168;6.840;2022-07-04T00:14:41;2.73;;;2.07;;
29954;SDS011;16812;51.168;6.840;2022-07-04T00:17:09;2.57;;;2.20;;
29954;SDS011;16812;51.168;6.840;2022-07-04T00:19:36;5.60;;;1.93;;
29954;SDS011;16812;51.168;6.840;2022-07-04T00:22:05;2.53;;;1.97;;
29954;SDS011;16812;51.168;6.840;2022-07-04T00:24:32;2.90;;;2.10;;
29954;SDS011;16812;51.168;6.840;2022-07-04T00:26:59;3.50;;;2.10;;
29954;SDS011;16812;51.168;6.840;2022-07-04T00:29:27;5.40;;;2.30;;
29954;SDS011;16812;51.168;6.840;2022-07-04T00:31:54;5.27;;;2.07;;
29954;SDS011;16812;51.168;6.840;2022-07-04T00:34:21;5.60;;;2.13;;
29954;SDS011;16812;51.168;6.840;2022-07-04T00:36:49;2.43;;;1.90;;
29954;SDS011;16812;51.168;6.840;2022-07-04T00:39:17;1.87;;;1.63;;
29954;SDS011;16812;51.168;6.840;2022-07-04T00:41:44;3.60;;;2.33;;
29954;SDS011;16812;51.168;6.840;2022-07-04T00:44:12;5.47;;;1.97;;
29954;SDS011;16812;51.168;6.840;2022-07-04T00:46:39;5.00;;;1.70;;
29954;SDS011;16812;51.168;6.840;2022-07-04T00:49:07;1.90;;;1.57;;
29954;SDS011;16812;51.168;6.840;2022-07-04T00:51:34;4.17;;;1.73;;
29954;SDS011;16812;51.168;6.840;2022-07-04T00:54:03;4.33;;;1.97;;
29954;SDS011;16812;51.168;6.840;2022-07-04T00:56:32;1.90;;;1.80;;
29954;SDS011;16812;51.168;6.840;2022-07-04T00:59:02;6.30;;;1.83;;
29954;SDS011;16812;51.168;6.840;2022-07-04T01:01:29;4.33;;;2.20;;
29954;SDS011;16812;51.168;6.840;2022-07-04T01:03:57;3.23;;;1.70;;
29954;SDS011;16812;51.168;6.840;2022-07-04T01:06:24;6.87;;;1.97;;
29954;SDS011;16812;51.168;6.840;2022-07-04T01:08:51;4.30;;;1.80;;
29954;SDS011;16812;51.168;6.840;2022-07-04T01:11:19;3.50;;;2.03;;
29954;SDS011;16812;51.168;6.840;2022-07-04T01:13:47;3.80;;;1.77;;
29954;SDS011;16812;51.168;6.840;2022-07-04T01:16:15;4.50;;;2.00;;
29954;SDS011;16812;51.168;6.840;2022-07-04T01:18:42;5.33;;;1.97;;
29954;SDS011;16812;51.168;6.840;2022-07-04T01:21:11;4.30;;;1.73;;
29954;SDS011;16812;51.168;6.840;2022-07-04T01:23:38;3.90;;;1.93;;
29954;SDS011;16812;51.168;6.840;2022-07-04T01:26:06;5.67;;;2.03;;
29954;SDS011;16812;51.168;6.840;2022-07-04T01:28:33;1.93;;;1.70;;
29954;SDS011;16812;51.168;6.840;2022-07-04T01:31:00;7.53;;;2.00;;
29954;SDS011;16812;51.168;6.840;2022-07-04T01:33:28;3.80;;;2.30;;
29954;SDS011;16812;51.168;6.840;2022-07-04T01:35:55;8.50;;;2.17;;
29954;SDS011;16812;51.168;6.840;2022-07-04T01:38:23;3.67;;;2.07;;
29954;SDS011;16812;51.168;6.840;2022-07-04T01:40:51;3.03;;;1.70;;
29954;SDS011;16812;51.168;6.840;2022-07-04T01:43:18;3.10;;;2.10;;
29954;SDS011;16812;51.168;6.840;2022-07-04T01:45:45;3.47;;;2.10;;
29954;SDS011;16812;51.168;6.840;2022-07-04T01:48:12;2.80;;;2.60;;
29954;SDS011;16812;51.168;6.840;2022-07-04T01:50:40;4.30;;;2.17;;
29954;SDS011;16812;51.168;6.840;2022-07-04T01:53:07;3.07;;;2.73;;
29954;SDS011;16812;51.168;6.840;2022-07-04T01:55:36;3.93;;;1.90;;
29954;SDS011;16812;51.168;6.840;2022-07-04T01:58:03;2.97;;;2.00;;
29954;SDS011;16812;51.168;6.840;2022-07-04T02:00:30;3.00;;;2.60;;
29954;SDS011;16812;51.168;6.840;2022-07-04T02:02:58;2.90;;;2.60;;
29954;SDS011;16812;51.168;6.840;2022-07-04T02:05:25;4.07;;;2.30;;
29954;SDS011;16812;51.168;6.840;2022-07-04T02:07:52;2.43;;;2.20;;
29954;SDS011;16812;51.168;6.840;2022-07-04T02:10:19;4.60;;;3.00;;
29954;SDS011;16812;51.168;6.840;2022-07-04T02:12:48;6.53;;;2.57;;
29954;SDS011;16812;51.168;6.840;2022-07-04T02:15:15;4.60;;;2.27;;
29954;SDS011;16812;51.168;6.840;2022-07-04T02:17:42;5.30;;;2.70;;
29954;SDS011;16812;51.168;6.840;2022-07-04T02:20:10;3.03;;;2.40;;
29954;SDS011;16812;51.168;6.840;2022-07-04T02:22:37;3.30;;;2.57;;
29954;SDS011;16812;51.168;6.840;2022-07-04T02:25:05;7.63;;;2.53;;
29954;SDS011;16812;51.168;6.840;2022-07-04T02:27:32;4.97;;;2.97;;
29954;SDS011;16812;51.168;6.840;2022-07-04T02:30:01;2.90;;;2.60;;
29954;SDS011;16812;51.168;6.840;2022-07-04T02:32:28;6.37;;;2.90;;
29954;SDS011;16812;51.168;6.840;2022-07-04T02:34:55;6.57;;;3.23;;
29954;SDS011;16812;51.168;6.840;2022-07-04T02:37:22;10.33;;;3.20;;
29954;SDS011;16812;51.168;6.840;2022-07-04T02:39:50;4.53;;;3.00;;
29954;SDS011;16812;51.168;6.840;2022-07-04T02:42:17;4.63;;;3.03;;
29954;SDS011;16812;51.168;6.840;2022-07-04T02:44:44;4.63;;;3.00;;
29954;SDS011;16812;51.168;6.840;2022-07-04T02:47:13;5.27;;;3.40;;
29954;SDS011;16812;51.168;6.840;2022-07-04T02:49:41;8.27;;;3.13;;
29954;SDS011;16812;51.168;6.840;2022-07-04T02:52:08;3.80;;;3.40;;
29954;SDS011;16812;51.168;6.840;2022-07-04T02:54:35;5.30;;;3.27;;
29954;SDS011;16812;51.168;6.840;2022-07-04T02:57:02;5.97;;;3.03;;
29954;SDS011;16812;51.168;6.840;2022-07-04T02:59:30;3.90;;;3.00;;
29954;SDS011;16812;51.168;6.840;2022-07-04T03:01:57;3.50;;;2.77;;
29954;SDS011;16812;51.168;6.840;2022-07-04T03:04:26;4.70;;;2.83;;
29954;SDS011;16812;51.168;6.840;2022-07-04T03:06:53;4.40;;;2.67;;
29954;SDS011;16812;51.168;6.840;2022-07-04T03:09:20;5.10;;;3.07;;
29954;SDS011;16812;51.168;6.840;2022-07-04T03:11:48;5.33;;;3.10;;
29954;SDS011;16812;51.168;6.840;2022-07-04T03:14:15;8.33;;;2.83;;
29954;SDS011;16812;51.168;6.840;2022-07-04T03:16:42;5.90;;;2.83;;
29954;SDS011;16812;51.168;6.840;2022-07-04T03:19:10;5.43;;;2.77;;
29954;SDS011;16812;51.168;6.840;2022-07-04T03:21:38;4.20;;;2.70;;
29954;SDS011;16812;51.168;6.840;2022-07-04T03:24:05;4.67;;;3.00;;
29954;SDS011;16812;51.168;6.840;2022-07-04T03:26:33;5.53;;;2.20;;
29954;SDS011;16812;51.168;6.840;2022-07-04T03:29:00;5.60;;;3.40;;
29954;SDS011;16812;51.168;6.840;2022-07-04T03:31:28;4.40;;;2.63;;
29954;SDS011;16812;51.168;6.840;2022-07-04T03:33:56;3.47;;;3.17;;
29954;SDS011;16812;51.168;6.840;2022-07-04T03:36:23;3.60;;;2.90;;
29954;SDS011;16812;51.168;6.840;2022-07-04T03:38:51;9.40;;;3.07;;
29954;SDS011;16812;51.168;6.840;2022-07-04T03:41:19;5.20;;;2.97;;
29954;SDS011;16812;51.168;6.840;2022-07-04T03:43:46;7.33;;;2.70;;
29954;SDS011;16812;51.168;6.840;2022-07-04T03:46:13;4.93;;;3.03;;
29954;SDS011;16812;51.168;6.840;2022-07-04T03:48:41;6.60;;;3.40;;
29954;SDS011;16812;51.168;6.840;2022-07-04T03:51:08;5.43;;;3.20;;
29954;SDS011;16812;51.168;6.840;2022-07-04T03:53:35;7.00;;;3.90;;
29954;SDS011;16812;51.168;6.840;2022-07-04T03:56:04;6.70;;;3.80;;
29954;SDS011;16812;51.168;6.840;2022-07-04T03:58:31;5.53;;;3.40;;
29954;SDS011;16812;51.168;6.840;2022-07-04T04:00:58;5.13;;;3.40;;
29954;SDS011;16812;51.168;6.840;2022-07-04T04:03:26;4.73;;;3.20;;
29954;SDS011;16812;51.168;6.840;2022-07-04T04:05:53;15.13;;;4.47;;
29954;SDS011;16812;51.168;6.840;2022-07-04T04:08:20;4.10;;;2.87;;
29954;SDS011;16812;51.168;6.840;2022-07-04T04:10:48;5.60;;;2.40;;
29954;SDS011;16812;51.168;6.840;2022-07-04T04:13:17;5.27;;;3.50;;
29954;SDS011;16812;51.168;6.840;2022-07-04T04:15:44;9.20;;;3.23;;
29954;SDS011;16812;51.168;6.840;2022-07-04T04:18:11;4.73;;;2.93;;
29954;SDS011;16812;51.168;6.840;2022-07-04T04:20:39;6.70;;;2.70;;
29954;SDS011;16812;51.168;6.840;2022-07-04T04:23:06;3.40;;;2.37;;
29954;SDS011;16812;51.168;6.840;2022-07-04T04:25:33;4.53;;;2.80;;
29954;SDS011;16812;51.168;6.840;2022-07-04T04:28:00;3.23;;;2.60;;
29954;SDS011;16812;51.168;6.840;2022-07-04T04:30:29;8.43;;;2.43;;
29954;SDS011;16812;51.168;6.840;2022-07-04T04:32:56;7.27;;;2.80;;
29954;SDS011;16812;51.168;6.840;2022-07-04T04:35:24;6.77;;;2.90;;
29954;SDS011;16812;51.168;6.840;2022-07-04T04:37:51;2.83;;;2.50;;
29954;SDS011;16812;51.168;6.840;2022-07-04T04:40:18;6.13;;;3.17;;
29954;SDS011;16812;51.168;6.840;2022-07-04T04:42:45;3.13;;;2.70;;
29954;SDS011;16812;51.168;6.840;2022-07-04T04:45:13;6.73;;;2.77;;
29954;SDS011;16812;51.168;6.840;2022-07-04T04:47:41;3.40;;;2.50;;
29954;SDS011;16812;51.168;6.840;2022-07-04T04:50:09;5.07;;;3.57;;
29954;SDS011;16812;51.168;6.840;2022-07-04T04:52:36;5.30;;;2.90;;
29954;SDS011;16812;51.168;6.840;2022-07-04T04:55:04;5.17;;;2.67;;
29954;SDS011;16812;51.168;6.840;2022-07-04T04:57:31;3.60;;;2.30;;
29954;SDS011;16812;51.168;6.840;2022-07-04T04:59:58;8.40;;;3.50;;
29954;SDS011;16812;51.168;6.840;2022-07-04T05:02:26;4.80;;;2.67;;
29954;SDS011;16812;51.168;6.840;2022-07-04T05:04:54;4.70;;;3.40;;
29954;SDS011;16812;51.168;6.840;2022-07-04T05:07:22;4.80;;;4.00;;
29954;SDS011;16812;51.168;6.840;2022-07-04T05:09:49;7.00;;;3.53;;
29954;SDS011;16812;51.168;6.840;2022-07-04T05:12:16;10.70;;;4.27;;
29954;SDS011;16812;51.168;6.840;2022-07-04T05:14:43;6.40;;;4.33;;
29954;SDS011;16812;51.168;6.840;2022-07-04T05:17:11;8.23;;;4.17;;
29954;SDS011;16812;51.168;6.840;2022-07-04T05:19:38;9.60;;;4.20;;
29954;SDS011;16812;51.168;6.840;2022-07-04T05:22:07;8.70;;;3.70;;
29954;SDS011;16812;51.168;6.840;2022-07-04T05:24:34;7.23;;;4.70;;
29954;SDS011;16812;51.168;6.840;2022-07-04T05:27:06;6.73;;;3.33;;
29954;SDS011;16812;51.168;6.840;2022-07-04T05:29:33;5.20;;;3.50;;
29954;SDS011;16812;51.168;6.840;2022-07-04T05:32:00;10.10;;;4.67;;
29954;SDS011;16812;51.168;6.840;2022-07-04T05:34:28;10.70;;;4.03;;
29954;SDS011;16812;51.168;6.840;2022-07-04T05:36:55;4.13;;;3.47;;
29954;SDS011;16812;51.168;6.840;2022-07-04T05:39:23;7.90;;;3.70;;
29954;SDS011;16812;51.168;6.840;2022-07-04T05:41:51;5.17;;;3.87;;
29954;SDS011;16812;51.168;6.840;2022-07-04T05:44:18;8.53;;;3.80;;
29954;SDS011;16812;51.168;6.840;2022-07-04T05:46:45;8.43;;;3.40;;
29954;SDS011;16812;51.168;6.840;2022-07-04T05:49:13;9.97;;;3.63;;
29954;SDS011;16812;51.168;6.840;2022-07-04T05:51:40;4.57;;;3.10;;
29954;SDS011;16812;51.168;6.840;2022-07-04T05:54:07;8.00;;;3.70;;
29954;SDS011;16812;51.168;6.840;2022-07-04T05:56:36;7.17;;;3.77;;
29954;SDS011;16812;51.168;6.840;2022-07-04T05:59:03;12.20;;;3.60;;
29954;SDS011;16812;51.168;6.840;2022-07-04T06:01:30;7.20;;;3.50;;
29954;SDS011;16812;51.168;6.840;2022-07-04T06:03:58;8.57;;;3.13;;
29954;SDS011;16812;51.168;6.840;2022-07-04T06:06:25;6.10;;;2.87;;
29954;SDS011;16812;51.168;6.840;2022-07-04T06:08:52;11.40;;;3.47;;
29954;SDS011;16812;51.168;6.840;2022-07-04T06:11:19;7.10;;;3.23;;
29954;SDS011;16812;51.168;6.840;2022-07-04T06:13:48;11.20;;;3.67;;
29954;SDS011;16812;51.168;6.840;2022-07-04T06:16:16;9.73;;;3.13;;
29954;SDS011;16812;51.168;6.840;2022-07-04T06:18:43;8.77;;;2.70;;
29954;SDS011;16812;51.168;6.840;2022-07-04T06:21:10;5.40;;;3.30;;
29954;SDS011;16812;51.168;6.840;2022-07-04T06:23:37;7.57;;;3.13;;
29954;SDS011;16812;51.168;6.840;2022-07-04T06:26:05;8.50;;;3.07;;
29954;SDS011;16812;51.168;6.840;2022-07-04T06:28:32;7.40;;;3.30;;
29954;SDS011;16812;51.168;6.840;2022-07-04T06:31:16;11.00;;;3.37;;
29954;SDS011;16812;51.168;6.840;2022-07-04T06:33:43;5.70;;;2.87;;
29954;SDS011;16812;51.168;6.840;2022-07-04T06:36:10;6.90;;;3.10;;
29954;SDS011;16812;51.168;6.840;2022-07-04T06:38:38;8.10;;;2.90;;
29954;SDS011;16812;51.168;6.840;2022-07-04T06:41:05;3.33;;;3.00;;
29954;SDS011;16812;51.168;6.840;2022-07-04T06:43:32;6.03;;;2.90;;
29954;SDS011;16812;51.168;6.840;2022-07-04T06:45:59;10.50;;;3.00;;
29954;SDS011;16812;51.168;6.840;2022-07-04T06:48:28;10.23;;;3.00;;
29954;SDS011;16812;51.168;6.840;2022-07-04T06:50:55;5.70;;;2.70;;
29954;SDS011;16812;51.168;6.840;2022-07-04T06:53:22;3.97;;;2.33;;
29954;SDS011;16812;51.168;6.840;2022-07-04T06:55:50;7.97;;;3.20;;
29954;SDS011;16812;51.168;6.840;2022-07-04T06:58:17;7.10;;;3.10;;
29954;SDS011;16812;51.168;6.840;2022-07-04T07:00:44;6.70;;;2.97;;
29954;SDS011;16812;51.168;6.840;2022-07-04T07:03:11;6.93;;;2.60;;
29954;SDS011;16812;51.168;6.840;2022-07-04T07:05:40;4.03;;;2.10;;
29954;SDS011;16812;51.168;6.840;2022-07-04T07:08:25;7.33;;;2.60;;
29954;SDS011;16812;51.168;6.840;2022-07-04T07:10:52;5.50;;;2.87;;
29954;SDS011;16812;51.168;6.840;2022-07-04T07:13:19;4.93;;;2.00;;
29954;SDS011;16812;51.168;6.840;2022-07-04T07:15:47;5.13;;;2.33;;
29954;SDS011;16812;51.168;6.840;2022-07-04T07:18:14;6.05;;;1.88;;
29954;SDS011;16812;51.168;6.840;2022-07-04T07:20:42;7.18;;;2.10;;
29954;SDS011;16812;51.168;6.840;2022-07-04T07:23:10;7.68;;;1.98;;
29954;SDS011;16812;51.168;6.840;2022-07-04T07:25:37;4.43;;;1.52;;
29954;SDS011;16812;51.168;6.840;2022-07-04T07:28:04;7.20;;;2.03;;
29954;SDS011;16812;51.168;6.840;2022-07-04T07:30:31;4.43;;;1.60;;
29954;SDS011;16812;51.168;6.840;2022-07-04T07:32:58;2.40;;;1.43;;
29954;SDS011;16812;51.168;6.840;2022-07-04T07:35:25;5.20;;;2.03;;
29954;SDS011;16812;51.168;6.840;2022-07-04T07:37:54;5.13;;;1.88;;
29954;SDS011;16812;51.168;6.840;2022-07-04T07:40:21;2.33;;;1.80;;
29954;SDS011;16812;51.168;6.840;2022-07-04T07:42:48;2.75;;;1.58;;
29954;SDS011;16812;51.168;6.840;2022-07-04T07:45:15;2.47;;;1.30;;
29954;SDS011;16812;51.168;6.840;2022-07-04T07:47:43;2.00;;;1.23;;
29954;SDS011;16812;51.168;6.840;2022-07-04T07:50:10;2.17;;;1.52;;
29954;SDS011;16812;51.168;6.840;2022-07-04T07:52:37;4.35;;;1.50;;
29954;SDS011;16812;51.168;6.840;2022-07-04T07:55:06;2.30;;;1.60;;
29954;SDS011;16812;51.168;6.840;2022-07-04T07:57:33;2.63;;;1.42;;
29954;SDS011;16812;51.168;6.840;2022-07-04T08:00:01;6.80;;;1.40;;
29954;SDS011;16812;51.168;6.840;2022-07-04T08:02:37;3.70;;;1.58;;
29954;SDS011;16812;51.168;6.840;2022-07-04T08:05:05;4.47;;;1.48;;
29954;SDS011;16812;51.168;6.840;2022-07-04T08:07:32;1.80;;;1.20;;
29954;SDS011;16812;51.168;6.840;2022-07-04T08:09:59;1.60;;;1.33;;
29954;SDS011;16812;51.168;6.840;2022-07-04T08:12:28;2.78;;;1.40;;
29954;SDS011;16812;51.168;6.840;2022-07-04T08:14:55;4.22;;;1.23;;
29954;SDS011;16812;51.168;6.840;2022-07-04T08:17:29;1.60;;;1.50;;
29954;SDS011;16812;51.168;6.840;2022-07-04T08:19:56;1.92;;;1.10;;
29954;SDS011;16812;51.168;6.840;2022-07-04T08:22:23;3.78;;;1.20;;
29954;SDS011;16812;51.168;6.840;2022-07-04T08:24:51;2.65;;;1.15;;
29954;SDS011;16812;51.168;6.840;2022-07-04T08:27:18;2.65;;;1.30;;
29954;SDS011;16812;51.168;6.840;2022-07-04T08:29:46;1.98;;;1.00;;
29954;SDS011;16812;51.168;6.840;2022-07-04T08:32:14;1.38;;;0.93;;
29954;SDS011;16812;51.168;6.840;2022-07-04T08:34:41;2.38;;;1.40;;
29954;SDS011;16812;51.168;6.840;2022-07-04T08:37:09;1.50;;;1.30;;
29954;SDS011;16812;51.168;6.840;2022-07-04T08:39:36;2.70;;;1.38;;
29954;SDS011;16812;51.168;6.840;2022-07-04T08:42:05;2.53;;;1.60;;
29954;SDS011;16812;51.168;6.840;2022-07-04T08:44:33;1.83;;;1.50;;
29954;SDS011;16812;51.168;6.840;2022-07-04T08:47:06;2.85;;;1.48;;
29954;SDS011;16812;51.168;6.840;2022-07-04T08:49:42;2.63;;;1.35;;
29954;SDS011;16812;51.168;6.840;2022-07-04T08:52:11;3.65;;;1.30;;
29954;SDS011;16812;51.168;6.840;2022-07-04T08:54:39;3.05;;;1.15;;
29954;SDS011;16812;51.168;6.840;2022-07-04T08:57:06;2.03;;;1.15;;
29954;SDS011;16812;51.168;6.840;2022-07-04T08:59:34;2.25;;;1.23;;
29954;SDS011;16812;51.168;6.840;2022-07-04T09:02:02;1.27;;;1.15;;
29954;SDS011;16812;51.168;6.840;2022-07-04T09:04:31;2.35;;;1.10;;
29954;SDS011;16812;51.168;6.840;2022-07-04T09:06:58;2.95;;;1.60;;
29954;SDS011;16812;51.168;6.840;2022-07-04T09:09:26;3.78;;;1.20;;
29954;SDS011;16812;51.168;6.840;2022-07-04T09:11:54;3.90;;;0.93;;
29954;SDS011;16812;51.168;6.840;2022-07-04T09:14:21;1.30;;;1.00;;
29954;SDS011;16812;51.168;6.840;2022-07-04T09:16:48;2.38;;;1.50;;
29954;SDS011;16812;51.168;6.840;2022-07-04T09:19:18;3.90;;;1.10;;
29954;SDS011;16812;51.168;6.840;2022-07-04T09:21:47;6.82;;;1.65;;
29954;SDS011;16812;51.168;6.840;2022-07-04T09:24:15;2.13;;;1.10;;
29954;SDS011;16812;51.168;6.840;2022-07-04T09:26:43;3.30;;;1.50;;
29954;SDS011;16812;51.168;6.840;2022-07-04T09:29:11;3.65;;;1.55;;
29954;SDS011;16812;51.168;6.840;2022-07-04T09:31:38;5.88;;;1.23;;
29954;SDS011;16812;51.168;6.840;2022-07-04T09:34:06;1.65;;;1.13;;
29954;SDS011;16812;51.168;6.840;2022-07-04T09:36:34;2.22;;;1.15;;
29954;SDS011;16812;51.168;6.840;2022-07-04T09:39:10;3.15;;;1.63;;
29954;SDS011;16812;51.168;6.840;2022-07-04T09:41:53;2.70;;;1.38;;
29954;SDS011;16812;51.168;6.840;2022-07-04T09:44:21;5.00;;;1.35;;
29954;SDS011;16812;51.168;6.840;2022-07-04T09:46:48;2.35;;;1.38;;
29954;SDS011;16812;51.168;6.840;2022-07-04T09:49:16;2.15;;;1.17;;
29954;SDS011;16812;51.168;6.840;2022-07-04T09:51:44;2.55;;;1.20;;
29954;SDS011;16812;51.168;6.840;2022-07-04T09:54:14;3.22;;;1.20;;
29954;SDS011;16812;51.168;6.840;2022-07-04T09:56:41;4.22;;;1.15;;
29954;SDS011;16812;51.168;6.840;2022-07-04T09:59:09;1.10;;;1.00;;
29954;SDS011;16812;51.168;6.840;2022-07-04T10:01:36;1.75;;;1.65;;
29954;SDS011;16812;51.168;6.840;2022-07-04T10:04:03;4.07;;;1.33;;
29954;SDS011;16812;51.168;6.840;2022-07-04T10:06:31;1.42;;;1.20;;
29954;SDS011;16812;51.168;6.840;2022-07-04T10:09:05;3.17;;;1.48;;
29954;SDS011;16812;51.168;6.840;2022-07-04T10:11:35;1.70;;;1.10;;
29954;SDS011;16812;51.168;6.840;2022-07-04T10:14:02;3.28;;;1.25;;
29954;SDS011;16812;51.168;6.840;2022-07-04T10:16:30;1.40;;;1.00;;
29954;SDS011;16812;51.168;6.840;2022-07-04T10:18:57;2.10;;;1.25;;
29954;SDS011;16812;51.168;6.840;2022-07-04T10:21:25;2.78;;;1.58;;
29954;SDS011;16812;51.168;6.840;2022-07-04T10:23:52;3.63;;;1.33;;
29954;SDS011;16812;51.168;6.840;2022-07-04T10:26:20;2.85;;;1.23;;
29954;SDS011;16812;51.168;6.840;2022-07-04T10:28:49;3.08;;;1.10;;
29954;SDS011;16812;51.168;6.840;2022-07-04T10:31:16;2.70;;;1.20;;
29954;SDS011;16812;51.168;6.840;2022-07-04T10:33:45;3.42;;;1.35;;
29954;SDS011;16812;51.168;6.840;2022-07-04T10:36:15;2.65;;;1.20;;
29954;SDS011;16812;51.168;6.840;2022-07-04T10:38:47;1.20;;;1.08;;
29954;SDS011;16812;51.168;6.840;2022-07-04T10:41:14;1.88;;;1.20;;
29954;SDS011;16812;51.168;6.840;2022-07-04T10:43:52;3.35;;;1.27;;
29954;SDS011;16812;51.168;6.840;2022-07-04T10:46:22;1.83;;;1.33;;
29954;SDS011;16812;51.168;6.840;2022-07-04T10:48:49;2.58;;;1.20;;
29954;SDS011;16812;51.168;6.840;2022-07-04T10:51:22;2.25;;;1.25;;
29954;SDS011;16812;51.168;6.840;2022-07-04T10:53:59;1.60;;;0.93;;
29954;SDS011;16812;51.168;6.840;2022-07-04T10:56:31;2.35;;;1.33;;
29954;SDS011;16812;51.168;6.840;2022-07-04T10:59:04;2.00;;;1.05;;
29954;SDS011;16812;51.168;6.840;2022-07-04T11:01:34;1.40;;;1.00;;
29954;SDS011;16812;51.168;6.840;2022-07-04T11:04:01;1.70;;;1.20;;
29954;SDS011;16812;51.168;6.840;2022-07-04T11:09:15;3.75;;;1.10;;
29954;SDS011;16812;51.168;6.840;2022-07-04T11:11:49;2.35;;;1.30;;
29954;SDS011;16812;51.168;6.840;2022-07-04T11:14:34;1.83;;;1.20;;
29954;SDS011;16812;51.168;6.840;2022-07-04T11:17:01;2.78;;;1.20;;
29954;SDS011;16812;51.168;6.840;2022-07-04T11:19:29;1.40;;;0.95;;
29954;SDS011;16812;51.168;6.840;2022-07-04T11:21:56;3.80;;;1.58;;
29954;SDS011;16812;51.168;6.840;2022-07-04T11:24:24;1.98;;;1.30;;
29954;SDS011;16812;51.168;6.840;2022-07-04T11:26:51;3.10;;;1.08;;
29954;SDS011;16812;51.168;6.840;2022-07-04T11:29:18;3.40;;;1.50;;
29954;SDS011;16812;51.168;6.840;2022-07-04T11:31:47;3.38;;;1.27;;
29954;SDS011;16812;51.168;6.840;2022-07-04T11:34:16;2.45;;;1.20;;
29954;SDS011;16812;51.168;6.840;2022-07-04T11:36:44;2.85;;;1.40;;
29954;SDS011;16812;51.168;6.840;2022-07-04T11:39:12;1.67;;;0.93;;
29954;SDS011;16812;51.168;6.840;2022-07-04T11:41:40;2.72;;;1.25;;
29954;SDS011;16812;51.168;6.840;2022-07-04T11:44:09;1.60;;;1.10;;
29954;SDS011;16812;51.168;6.840;2022-07-04T11:46:36;1.23;;;1.13;;
29954;SDS011;16812;51.168;6.840;2022-07-04T11:49:08;1.35;;;1.25;;
29954;SDS011;16812;51.168;6.840;2022-07-04T11:51:40;3.25;;;1.27;;
29954;SDS011;16812;51.168;6.840;2022-07-04T11:54:08;2.10;;;1.27;;
29954;SDS011;16812;51.168;6.840;2022-07-04T11:57:07;1.90;;;1.50;;
29954;SDS011;16812;51.168;6.840;2022-07-04T11:59:35;1.77;;;1.10;;
29954;SDS011;16812;51.168;6.840;2022-07-04T12:02:09;1.73;;;1.10;;
29954;SDS011;16812;51.168;6.840;2022-07-04T12:04:38;3.43;;;1.40;;
29954;SDS011;16812;51.168;6.840;2022-07-04T12:07:08;2.53;;;1.70;;
29954;SDS011;16812;51.168;6.840;2022-07-04T12:09:35;4.53;;;1.60;;
29954;SDS011;16812;51.168;6.840;2022-07-04T12:12:03;1.33;;;1.23;;
29954;SDS011;16812;51.168;6.840;2022-07-04T12:14:30;2.77;;;1.27;;
29954;SDS011;16812;51.168;6.840;2022-07-04T12:17:10;3.27;;;1.43;;
29954;SDS011;16812;51.168;6.840;2022-07-04T12:19:48;1.90;;;1.03;;
29954;SDS011;16812;51.168;6.840;2022-07-04T12:22:23;3.90;;;1.97;;
29954;SDS011;16812;51.168;6.840;2022-07-04T12:24:51;1.53;;;1.40;;
29954;SDS011;16812;51.168;6.840;2022-07-04T12:27:18;1.37;;;1.00;;
29954;SDS011;16812;51.168;6.840;2022-07-04T12:29:46;2.63;;;1.10;;
29954;SDS011;16812;51.168;6.840;2022-07-04T12:32:13;4.57;;;1.70;;
29954;SDS011;16812;51.168;6.840;2022-07-04T12:34:42;3.23;;;1.20;;
29954;SDS011;16812;51.168;6.840;2022-07-04T12:37:11;2.50;;;1.50;;
29954;SDS011;16812;51.168;6.840;2022-07-04T12:39:39;4.87;;;1.20;;
29954;SDS011;16812;51.168;6.840;2022-07-04T12:42:07;3.90;;;1.50;;
29954;SDS011;16812;51.168;6.840;2022-07-04T12:44:35;1.83;;;1.33;;
29954;SDS011;16812;51.168;6.840;2022-07-04T12:47:02;2.97;;;1.43;;
29954;SDS011;16812;51.168;6.840;2022-07-04T12:49:43;1.53;;;1.40;;
29954;SDS011;16812;51.168;6.840;2022-07-04T12:52:12;4.80;;;1.43;;
29954;SDS011;16812;51.168;6.840;2022-07-04T12:54:39;2.23;;;1.33;;
29954;SDS011;16812;51.168;6.840;2022-07-04T12:57:08;2.50;;;1.30;;
29954;SDS011;16812;51.168;6.840;2022-07-04T12:59:36;2.70;;;1.70;;
29954;SDS011;16812;51.168;6.840;2022-07-04T13:02:04;4.20;;;1.60;;
29954;SDS011;16812;51.168;6.840;2022-07-04T13:04:31;2.30;;;1.40;;
29954;SDS011;16812;51.168;6.840;2022-07-04T13:07:10;1.03;;;0.90;;
29954;SDS011;16812;51.168;6.840;2022-07-04T13:09:38;4.90;;;1.10;;
29954;SDS011;16812;51.168;6.840;2022-07-04T13:12:05;1.27;;;1.03;;
29954;SDS011;16812;51.168;6.840;2022-07-04T13:14:33;2.40;;;1.40;;
29954;SDS011;16812;51.168;6.840;2022-07-04T13:17:00;4.27;;;1.13;;
29954;SDS011;16812;51.168;6.840;2022-07-04T13:19:27;2.57;;;1.37;;
29954;SDS011;16812;51.168;6.840;2022-07-04T13:21:54;2.00;;;1.13;;
29954;SDS011;16812;51.168;6.840;2022-07-04T13:24:23;1.80;;;1.23;;
29954;SDS011;16812;51.168;6.840;2022-07-04T13:26:50;1.50;;;1.30;;
29954;SDS011;16812;51.168;6.840;2022-07-04T13:29:18;3.43;;;1.67;;
29954;SDS011;16812;51.168;6.840;2022-07-04T13:31:45;1.33;;;1.17;;
29954;SDS011;16812;51.168;6.840;2022-07-04T13:34:12;2.67;;;1.30;;
29954;SDS011;16812;51.168;6.840;2022-07-04T13:36:39;1.40;;;1.17;;
29954;SDS011;16812;51.168;6.840;2022-07-04T13:39:07;2.37;;;1.03;;
29954;SDS011;16812;51.168;6.840;2022-07-04T13:41:38;2.00;;;1.30;;
29954;SDS011;16812;51.168;6.840;2022-07-04T13:44:06;2.50;;;1.30;;
29954;SDS011;16812;51.168;6.840;2022-07-04T13:46:33;3.70;;;1.33;;
29954;SDS011;16812;51.168;6.840;2022-07-04T13:49:00;4.53;;;1.00;;
29954;SDS011;16812;51.168;6.840;2022-07-04T13:51:28;3.47;;;1.40;;
29954;SDS011;16812;51.168;6.840;2022-07-04T13:53:55;3.53;;;1.60;;
29954;SDS011;16812;51.168;6.840;2022-07-04T13:56:23;1.80;;;1.30;;
29954;SDS011;16812;51.168;6.840;2022-07-04T13:58:52;1.30;;;1.20;;
29954;SDS011;16812;51.168;6.840;2022-07-04T14:01:19;5.40;;;1.53;;
29954;SDS011;16812;51.168;6.840;2022-07-04T14:03:47;2.40;;;1.10;;
29954;SDS011;16812;51.168;6.840;2022-07-04T14:06:15;5.33;;;1.40;;
29954;SDS011;16812;51.168;6.840;2022-07-04T14:08:43;3.03;;;1.50;;
29954;SDS011;16812;51.168;6.840;2022-07-04T14:11:10;3.13;;;1.20;;
29954;SDS011;16812;51.168;6.840;2022-07-04T14:13:37;1.30;;;1.20;;
29954;SDS011;16812;51.168;6.840;2022-07-04T14:16:06;3.50;;;1.30;;
29954;SDS011;16812;51.168;6.840;2022-07-04T14:18:33;2.00;;;1.30;;
29954;SDS011;16812;51.168;6.840;2022-07-04T14:21:01;3.60;;;1.60;;
29954;SDS011;16812;51.168;6.840;2022-07-04T14:23:28;4.83;;;1.50;;
29954;SDS011;16812;51.168;6.840;2022-07-04T14:25:55;2.10;;;1.43;;
29954;SDS011;16812;51.168;6.840;2022-07-04T14:28:22;1.30;;;1.20;;
29954;SDS011;16812;51.168;6.840;2022-07-04T14:30:49;1.63;;;1.30;;
29954;SDS011;16812;51.168;6.840;2022-07-04T14:33:18;2.53;;;1.43;;
29954;SDS011;16812;51.168;6.840;2022-07-04T14:35:45;3.40;;;1.20;;
29954;SDS011;16812;51.168;6.840;2022-07-04T14:38:12;3.33;;;1.40;;
29954;SDS011;16812;51.168;6.840;2022-07-04T14:40:40;3.20;;;1.50;;
29954;SDS011;16812;51.168;6.840;2022-07-04T14:43:07;1.50;;;1.13;;
29954;SDS011;16812;51.168;6.840;2022-07-04T14:45:34;2.80;;;1.50;;
29954;SDS011;16812;51.168;6.840;2022-07-04T14:48:01;3.77;;;1.93;;
29954;SDS011;16812;51.168;6.840;2022-07-04T14:50:30;1.20;;;1.10;;
29954;SDS011;16812;51.168;6.840;2022-07-04T14:52:57;2.13;;;1.20;;
29954;SDS011;16812;51.168;6.840;2022-07-04T14:55:24;3.37;;;1.23;;
29954;SDS011;16812;51.168;6.840;2022-07-04T14:57:52;1.87;;;1.33;;